createdAt,value
2023-01-27T00:01:09.749Z,8.00
2023-01-27T00:03:37.287Z,8.05
2023-01-27T00:06:06.439Z,8.32
2023-01-27T00:08:34.028Z,10.45
2023-01-27T00:11:20.270Z,6.13
2023-01-27T00:13:48.112Z,5.63
2023-01-27T00:16:15.503Z,7.00
2023-01-27T00:18:43.035Z,11.23
2023-01-27T00:21:29.326Z,12.25
2023-01-27T00:24:15.396Z,5.13
2023-01-27T00:26:42.657Z,6.68
2023-01-27T00:29:09.934Z,8.68
2023-01-27T00:31:55.882Z,4.15
2023-01-27T00:34:23.131Z,4.82
2023-01-27T00:36:50.407Z,5.32
2023-01-27T00:39:17.740Z,6.15
2023-01-27T00:41:44.960Z,7.00
2023-01-27T00:44:13.312Z,7.93
2023-01-27T00:46:42.188Z,5.30
2023-01-27T00:49:11.259Z,6.70
2023-01-27T00:51:38.705Z,5.00
2023-01-27T00:54:06.607Z,5.45
2023-01-27T00:56:34.570Z,6.75
2023-01-27T00:59:01.937Z,7.03
2023-01-27T01:01:29.755Z,6.95
2023-01-27T01:03:58.820Z,7.18
2023-01-27T01:06:27.037Z,8.60
2023-01-27T01:08:56.863Z,7.15
2023-01-27T01:11:25.041Z,7.60
2023-01-27T01:13:54.800Z,6.05
2023-01-27T01:16:25.170Z,7.78
2023-01-27T01:18:53.087Z,6.95
2023-01-27T01:21:21.406Z,8.57
2023-01-27T01:23:48.786Z,7.47
2023-01-27T01:26:17.587Z,8.15
2023-01-27T01:28:45.927Z,7.32
2023-01-27T01:31:19.349Z,9.73
2023-01-27T01:33:47.928Z,5.25
2023-01-27T01:36:18.309Z,8.02
2023-01-27T01:38:46.493Z,7.68
2023-01-27T01:41:18.158Z,10.27
2023-01-27T01:43:47.504Z,7.22
2023-01-27T01:46:40.114Z,6.43
2023-01-27T01:49:09.195Z,5.18
2023-01-27T01:51:46.577Z,10.30
2023-01-27T01:54:16.918Z,11.57
2023-01-27T01:56:47.308Z,6.95
2023-01-27T01:59:19.509Z,8.70
2023-01-27T02:01:47.430Z,8.07
2023-01-27T02:04:19.379Z,4.70
2023-01-27T02:07:11.328Z,12.25
2023-01-27T02:09:39.348Z,6.68
2023-01-27T02:12:06.951Z,5.95
2023-01-27T02:14:37.896Z,9.23
2023-01-27T02:17:05.764Z,9.32
2023-01-27T02:19:49.974Z,13.40
2023-01-27T02:22:55.126Z,10.80
2023-01-27T02:25:34.677Z,8.70
2023-01-27T02:28:04.853Z,10.13
2023-01-27T02:30:32.688Z,11.77
2023-01-27T02:33:00.460Z,11.50
2023-01-27T02:35:36.634Z,8.40
2023-01-27T02:38:07.432Z,12.63
2023-01-27T02:40:36.513Z,12.65
2023-01-27T02:43:05.696Z,9.48
2023-01-27T02:45:33.048Z,12.60
2023-01-27T02:48:00.280Z,15.27
2023-01-27T02:50:27.614Z,13.93
2023-01-27T02:52:54.876Z,16.13
2023-01-27T02:55:22.748Z,16.65
2023-01-27T02:57:51.637Z,12.00
2023-01-27T03:00:42.716Z,13.00
2023-01-27T03:03:10.095Z,12.48
2023-01-27T03:05:37.490Z,20.15
2023-01-27T03:08:05.620Z,14.90
2023-01-27T03:10:33.187Z,13.95
2023-01-27T03:13:00.486Z,13.38
2023-01-27T03:15:46.208Z,13.52
2023-01-27T03:18:15.955Z,12.15
2023-01-27T03:20:47.678Z,9.90
2023-01-27T03:23:17.253Z,11.95
2023-01-27T03:25:49.207Z,13.82
2023-01-27T03:28:16.600Z,13.38
2023-01-27T03:31:09.141Z,16.40
2023-01-27T03:33:45.747Z,14.27
2023-01-27T03:36:47.230Z,14.70
2023-01-27T03:39:33.212Z,12.55
2023-01-27T03:42:19.093Z,14.90
2023-01-27T03:45:06.360Z,11.40
2023-01-27T03:47:33.745Z,11.60
2023-01-27T03:50:01.163Z,11.63
2023-01-27T03:52:28.477Z,10.70
2023-01-27T03:54:55.903Z,10.05
2023-01-27T03:57:23.299Z,10.82
2023-01-27T03:59:50.633Z,9.20
2023-01-27T04:02:36.454Z,9.82
2023-01-27T04:05:22.810Z,9.43
2023-01-27T04:07:50.139Z,9.57
2023-01-27T04:10:17.526Z,9.75
2023-01-27T04:12:47.912Z,9.43
2023-01-27T04:15:15.426Z,9.25
2023-01-27T04:17:43.478Z,11.18
2023-01-27T04:20:11.417Z,10.32
2023-01-27T04:22:39.813Z,10.65
2023-01-27T04:25:08.502Z,9.93
2023-01-27T04:27:35.805Z,12.35
2023-01-27T04:30:04.799Z,9.18
2023-01-27T04:32:32.224Z,11.18
2023-01-27T04:34:59.631Z,12.00
2023-01-27T04:37:26.942Z,13.45
2023-01-27T04:39:54.278Z,15.02
2023-01-27T04:42:22.420Z,12.88
2023-01-27T04:44:50.640Z,12.65
2023-01-27T04:47:17.957Z,18.50
2023-01-27T04:49:45.284Z,14.45
2023-01-27T04:52:12.640Z,14.68
2023-01-27T04:54:40.094Z,12.65
2023-01-27T04:57:07.456Z,16.67
2023-01-27T04:59:34.785Z,13.75
2023-01-27T05:02:04.498Z,13.85
2023-01-27T05:04:32.427Z,17.70
2023-01-27T05:06:59.713Z,14.20
2023-01-27T05:09:27.074Z,13.60
2023-01-27T05:11:54.481Z,13.35
2023-01-27T05:14:23.704Z,15.77
2023-01-27T05:16:51.688Z,15.23
2023-01-27T05:19:19.038Z,14.75
2023-01-27T05:21:46.478Z,14.65
2023-01-27T05:24:14.022Z,19.75
2023-01-27T05:26:41.399Z,17.95
2023-01-27T05:29:09.722Z,14.18
2023-01-27T05:31:37.279Z,17.35
2023-01-27T05:34:04.844Z,16.08
2023-01-27T05:36:32.218Z,17.88
2023-01-27T05:38:59.892Z,17.05
2023-01-27T05:41:32.996Z,15.45
2023-01-27T05:44:00.694Z,19.30
2023-01-27T05:46:30.592Z,16.00
2023-01-27T05:49:00.858Z,17.38
2023-01-27T05:51:31.418Z,16.73
2023-01-27T05:53:58.852Z,16.10
2023-01-27T05:56:26.609Z,15.38
2023-01-27T05:58:55.990Z,14.38
2023-01-27T06:01:27.741Z,13.93
2023-01-27T06:03:55.729Z,14.52
2023-01-27T06:06:24.754Z,13.65
2023-01-27T06:08:52.669Z,17.10
2023-01-27T06:11:21.502Z,12.98
2023-01-27T06:13:48.957Z,12.75
2023-01-27T06:16:18.227Z,11.60
2023-01-27T06:18:46.750Z,13.82
2023-01-27T06:21:16.200Z,13.52
2023-01-27T06:23:43.619Z,10.30
2023-01-27T06:26:15.712Z,11.25
2023-01-27T06:28:43.353Z,11.25
2023-01-27T06:31:16.802Z,10.60
2023-01-27T06:33:44.587Z,10.18
2023-01-27T06:36:14.269Z,10.82
2023-01-27T06:38:42.392Z,10.60
2023-01-27T06:41:09.920Z,11.80
2023-01-27T06:43:37.244Z,10.77
2023-01-27T06:46:06.033Z,11.60
2023-01-27T06:48:34.128Z,10.68
2023-01-27T06:51:01.564Z,10.93
2023-01-27T06:53:29.114Z,12.90
2023-01-27T06:55:58.567Z,11.70
2023-01-27T06:58:25.950Z,11.32
2023-01-27T07:00:54.384Z,12.10
2023-01-27T07:03:22.157Z,11.50
2023-01-27T07:05:49.936Z,13.07
2023-01-27T07:08:17.516Z,12.18
2023-01-27T07:10:44.988Z,11.32
2023-01-27T07:13:14.542Z,12.63
2023-01-27T07:15:42.229Z,12.23
2023-01-27T07:18:11.677Z,11.88
2023-01-27T07:20:39.454Z,13.50
2023-01-27T07:23:07.071Z,11.70
2023-01-27T07:25:35.537Z,11.68
2023-01-27T07:28:03.688Z,13.48
2023-01-27T07:30:31.730Z,13.57
2023-01-27T07:33:10.772Z,13.38
2023-01-27T07:35:39.254Z,14.65
2023-01-27T07:38:07.117Z,14.85
2023-01-27T07:40:35.767Z,12.95
2023-01-27T07:43:04.019Z,12.25
2023-01-27T07:45:34.443Z,12.02
2023-01-27T07:48:03.915Z,13.18
2023-01-27T07:50:31.578Z,11.60
2023-01-27T07:53:03.721Z,11.25
2023-01-27T07:55:32.357Z,11.63
2023-01-27T07:57:59.842Z,14.15
2023-01-27T08:00:28.265Z,10.57
2023-01-27T08:02:56.813Z,10.38
2023-01-27T08:05:25.237Z,11.65
2023-01-27T08:07:53.664Z,11.95
2023-01-27T08:10:21.445Z,11.90
2023-01-27T08:12:48.819Z,9.73
2023-01-27T08:15:18.862Z,11.35
2023-01-27T08:17:56.805Z,10.90
2023-01-27T08:20:26.290Z,10.55
2023-01-27T08:22:53.758Z,12.80
2023-01-27T08:25:21.671Z,10.35
2023-01-27T08:27:53.428Z,9.70
2023-01-27T08:30:21.409Z,10.43
2023-01-27T08:32:48.798Z,10.18
2023-01-27T08:35:16.172Z,11.40
2023-01-27T08:37:43.575Z,11.20
2023-01-27T08:40:11.864Z,11.88
2023-01-27T08:42:39.303Z,11.07
2023-01-27T08:45:07.130Z,10.70
2023-01-27T08:47:34.673Z,9.15
2023-01-27T08:50:01.980Z,10.20
2023-01-27T08:52:30.857Z,9.82
2023-01-27T08:54:58.615Z,10.30
2023-01-27T08:57:25.992Z,10.05
2023-01-27T08:59:53.256Z,9.20
2023-01-27T09:02:22.368Z,10.05
2023-01-27T09:04:49.997Z,10.32
2023-01-27T09:07:18.000Z,8.98
2023-01-27T09:09:49.149Z,8.73
2023-01-27T09:12:16.979Z,10.73
2023-01-27T09:14:44.308Z,8.25
2023-01-27T09:17:11.634Z,8.30
2023-01-27T09:19:38.932Z,9.02
2023-01-27T09:22:06.306Z,9.30
2023-01-27T09:24:33.628Z,8.10
2023-01-27T09:27:01.264Z,8.88
2023-01-27T09:29:29.415Z,9.98
2023-01-27T09:31:56.963Z,12.15
2023-01-27T09:34:24.454Z,8.23
2023-01-27T09:36:56.516Z,7.63
2023-01-27T09:39:24.654Z,8.65
2023-01-27T09:42:01.054Z,7.60
2023-01-27T09:44:46.455Z,7.70
2023-01-27T09:47:32.554Z,7.88
2023-01-27T09:50:08.468Z,8.00
2023-01-27T09:52:48.334Z,7.93
2023-01-27T09:55:30.554Z,7.50
2023-01-27T09:58:09.685Z,6.55
2023-01-27T10:00:55.241Z,5.95
2023-01-27T10:03:43.349Z,8.40
2023-01-27T10:06:42.110Z,6.28
2023-01-27T10:09:25.992Z,7.18
2023-01-27T10:12:14.864Z,6.43
2023-01-27T10:14:48.320Z,6.68
2023-01-27T10:18:10.841Z,5.93
2023-01-27T10:21:32.130Z,5.38
2023-01-27T10:24:08.442Z,7.10
2023-01-27T10:26:41.721Z,5.45
2023-01-27T10:29:17.906Z,6.15
2023-01-27T10:31:56.126Z,5.68
2023-01-27T10:34:32.999Z,6.28
2023-01-27T10:37:08.808Z,6.22
2023-01-27T10:39:51.600Z,7.00
2023-01-27T10:42:24.880Z,5.90
2023-01-27T10:45:24.448Z,6.07
2023-01-27T10:48:10.880Z,5.63
2023-01-27T10:50:45.645Z,5.93
2023-01-27T10:53:22.360Z,5.90
2023-01-27T10:56:17.788Z,6.38
2023-01-27T11:01:22.146Z,5.07
2023-01-27T11:03:55.880Z,5.47
2023-01-27T11:06:27.791Z,6.03
2023-01-27T11:09:15.364Z,5.85
2023-01-27T11:11:44.633Z,4.85
2023-01-27T11:14:16.888Z,6.10
2023-01-27T11:16:50.260Z,5.32
2023-01-27T11:19:30.892Z,6.15
2023-01-27T11:22:07.873Z,5.75
2023-01-27T11:24:46.791Z,7.22
2023-01-27T11:27:45.464Z,6.88
2023-01-27T11:30:22.894Z,6.53
2023-01-27T11:33:00.001Z,7.85
2023-01-27T11:35:27.375Z,6.50
2023-01-27T11:38:00.686Z,5.80
2023-01-27T11:40:37.661Z,7.80
2023-01-27T11:43:05.282Z,6.25
2023-01-27T11:45:36.340Z,6.03
2023-01-27T11:48:11.343Z,7.15
2023-01-27T11:50:38.652Z,5.82
2023-01-27T11:53:18.723Z,6.45
2023-01-27T11:56:00.658Z,6.38
2023-01-27T11:58:41.017Z,5.50
2023-01-27T12:01:18.702Z,6.68
2023-01-27T12:03:59.863Z,8.15
2023-01-27T12:06:40.757Z,6.28
2023-01-27T12:09:34.156Z,10.80
2023-01-27T12:12:22.616Z,7.05
2023-01-27T12:15:00.576Z,7.07
2023-01-27T12:17:43.274Z,6.47
2023-01-27T12:20:31.547Z,5.20
2023-01-27T12:23:31.404Z,6.00
2023-01-27T12:26:02.997Z,6.10
2023-01-27T12:28:41.887Z,7.00
2023-01-27T12:31:13.092Z,5.22
2023-01-27T12:33:48.001Z,5.43
2023-01-27T12:36:17.941Z,5.13
2023-01-27T12:38:53.124Z,5.82
2023-01-27T12:41:25.099Z,4.65
2023-01-27T12:44:16.339Z,5.75
2023-01-27T12:47:04.241Z,4.40
2023-01-27T12:49:38.753Z,4.68
2023-01-27T12:52:09.416Z,4.57
2023-01-27T12:54:37.280Z,4.70
2023-01-27T12:57:11.025Z,4.70
2023-01-27T12:59:50.894Z,6.00
2023-01-27T13:02:28.121Z,4.75
2023-01-27T13:04:59.336Z,4.40
2023-01-27T13:07:43.614Z,4.93
2023-01-27T13:10:21.610Z,5.13
2023-01-27T13:12:54.694Z,4.30
2023-01-27T13:15:28.574Z,4.78
2023-01-27T13:18:00.572Z,4.03
2023-01-27T13:20:33.695Z,4.00
2023-01-27T13:23:03.690Z,4.18
2023-01-27T13:26:03.205Z,4.80
2023-01-27T13:28:53.418Z,4.35
2023-01-27T13:31:38.875Z,4.15
2023-01-27T13:34:24.827Z,3.85
2023-01-27T13:37:02.378Z,3.88
2023-01-27T13:39:41.726Z,3.83
2023-01-27T13:42:28.965Z,4.32
2023-01-27T13:45:16.556Z,4.00
2023-01-27T13:47:46.741Z,3.88
2023-01-27T13:50:35.634Z,3.92
2023-01-27T13:53:04.678Z,4.30
2023-01-27T13:55:50.701Z,4.20
2023-01-27T13:58:36.801Z,3.45
2023-01-27T14:01:38.863Z,3.40
2023-01-27T14:04:26.017Z,3.35
2023-01-27T14:07:17.836Z,3.08
2023-01-27T14:09:56.721Z,2.90
2023-01-27T14:12:56.761Z,2.75
2023-01-27T14:15:32.053Z,2.97
2023-01-27T14:18:29.959Z,2.95
2023-01-27T14:21:09.313Z,6.30
2023-01-27T14:24:00.989Z,2.92
2023-01-27T14:26:28.396Z,3.47
2023-01-27T14:29:24.831Z,2.55
2023-01-27T14:32:14.677Z,2.78
2023-01-27T14:35:09.852Z,2.40
2023-01-27T14:37:50.371Z,2.40
2023-01-27T14:40:39.822Z,2.38
2023-01-27T14:43:22.600Z,2.67
2023-01-27T14:45:59.843Z,2.33
2023-01-27T14:48:51.707Z,3.58
2023-01-27T14:51:28.099Z,3.00
2023-01-27T14:54:20.263Z,2.85
2023-01-27T14:57:12.289Z,2.70
2023-01-27T15:00:06.297Z,3.67
2023-01-27T15:02:45.112Z,2.90
2023-01-27T15:05:29.739Z,2.17
2023-01-27T15:08:28.833Z,2.65
2023-01-27T15:11:17.527Z,2.05
2023-01-27T15:14:21.621Z,3.00
2023-01-27T15:17:05.252Z,1.90
2023-01-27T15:20:12.085Z,2.28
2023-01-27T15:22:42.347Z,2.47
2023-01-27T15:25:33.268Z,2.08
2023-01-27T15:28:01.672Z,3.15
2023-01-27T15:30:38.513Z,1.60
2023-01-27T15:33:43.554Z,1.52
2023-01-27T15:36:17.420Z,1.90
2023-01-27T15:39:14.783Z,2.08
2023-01-27T15:41:50.962Z,1.77
2023-01-27T15:44:32.280Z,2.05
2023-01-27T15:47:13.335Z,2.35
2023-01-27T15:50:00.960Z,1.80
2023-01-27T15:52:46.484Z,2.00
2023-01-27T15:55:30.000Z,1.95
2023-01-27T15:58:20.408Z,2.28
2023-01-27T16:00:53.465Z,1.83
2023-01-27T16:03:32.427Z,1.80
2023-01-27T16:06:12.274Z,2.40
2023-01-27T16:08:44.770Z,1.88
2023-01-27T16:11:39.446Z,2.38
2023-01-27T16:14:12.558Z,6.35
2023-01-27T16:17:09.494Z,7.65
2023-01-27T16:19:47.670Z,2.30
2023-01-27T16:22:19.580Z,2.20
2023-01-27T16:24:51.271Z,2.13
2023-01-27T16:27:44.285Z,3.40
2023-01-27T16:30:25.261Z,2.45
2023-01-27T16:33:18.880Z,2.55
2023-01-27T16:35:53.040Z,2.05
2023-01-27T16:38:29.750Z,2.42
2023-01-27T16:41:04.252Z,3.08
2023-01-27T16:43:44.856Z,2.50
2023-01-27T16:46:42.415Z,2.75
2023-01-27T16:49:22.318Z,2.47
2023-01-27T16:52:01.574Z,2.13
2023-01-27T16:54:36.015Z,2.42
2023-01-27T16:57:05.717Z,2.65
2023-01-27T16:59:38.424Z,2.42
2023-01-27T17:02:21.360Z,2.33
2023-01-27T17:04:56.113Z,2.65
2023-01-27T17:07:23.678Z,2.42
2023-01-27T17:09:52.306Z,2.38
2023-01-27T17:12:48.701Z,2.92
2023-01-27T17:15:18.426Z,2.80
2023-01-27T17:17:46.073Z,2.20
2023-01-27T17:20:29.583Z,3.45
2023-01-27T17:22:57.011Z,3.17
2023-01-27T17:25:27.570Z,2.47
2023-01-27T17:27:56.261Z,2.63
2023-01-27T17:30:26.476Z,3.65
2023-01-27T17:32:59.002Z,2.45
2023-01-27T17:35:33.093Z,2.80
2023-01-27T17:38:12.724Z,3.42
2023-01-27T17:40:42.436Z,3.40
2023-01-27T17:43:32.152Z,3.28
2023-01-27T17:46:05.221Z,2.60
2023-01-27T17:48:33.792Z,2.53
2023-01-27T17:51:01.169Z,2.60
2023-01-27T17:53:28.611Z,2.92
2023-01-27T17:55:56.826Z,3.22
2023-01-27T17:58:27.577Z,3.00
2023-01-27T18:00:56.192Z,2.92
2023-01-27T18:03:27.949Z,2.50
2023-01-27T18:05:55.773Z,3.08
2023-01-27T18:08:25.957Z,2.60
2023-01-27T18:10:53.426Z,5.63
2023-01-27T18:13:20.727Z,2.80
2023-01-27T18:15:58.931Z,2.88
2023-01-27T18:18:29.307Z,2.90
2023-01-27T18:20:59.278Z,2.97
2023-01-27T18:23:36.225Z,3.20
2023-01-27T18:26:18.140Z,2.75
2023-01-27T18:28:49.751Z,2.83
2023-01-27T18:31:24.695Z,3.67
2023-01-27T18:33:56.878Z,2.88
2023-01-27T18:36:29.690Z,2.90
2023-01-27T18:38:56.936Z,3.70
2023-01-27T18:41:27.697Z,3.25
2023-01-27T18:44:00.166Z,3.80
2023-01-27T18:46:27.696Z,3.22
2023-01-27T18:48:55.573Z,3.30
2023-01-27T18:51:22.966Z,2.92
2023-01-27T18:53:50.201Z,2.70
2023-01-27T18:56:17.596Z,3.70
2023-01-27T18:58:44.964Z,3.70
2023-01-27T19:01:21.530Z,5.93
2023-01-27T19:03:52.084Z,2.92
2023-01-27T19:06:19.582Z,3.22
2023-01-27T19:08:49.383Z,3.58
2023-01-27T19:11:17.257Z,3.47
2023-01-27T19:13:45.155Z,3.45
2023-01-27T19:16:17.696Z,3.50
2023-01-27T19:18:45.600Z,3.20
2023-01-27T19:21:14.837Z,2.85
2023-01-27T19:23:47.288Z,3.00
2023-01-27T19:26:17.351Z,2.85
2023-01-27T19:28:47.879Z,3.92
2023-01-27T19:31:15.697Z,2.70
2023-01-27T19:33:44.845Z,2.78
2023-01-27T19:36:17.227Z,3.17
2023-01-27T19:38:44.470Z,2.30
2023-01-27T19:41:12.415Z,3.20
2023-01-27T19:43:40.874Z,3.15
2023-01-27T19:46:15.085Z,4.20
2023-01-27T19:48:42.601Z,3.40
2023-01-27T19:51:11.784Z,3.35
2023-01-27T19:53:39.131Z,2.85
2023-01-27T19:56:17.312Z,3.42
2023-01-27T19:58:54.974Z,3.25
2023-01-27T20:01:25.013Z,2.90
2023-01-27T20:03:53.663Z,2.95
2023-01-27T20:06:27.272Z,3.75
2023-01-27T20:08:56.221Z,3.13
2023-01-27T20:11:35.864Z,3.15
2023-01-27T20:14:06.129Z,3.17
2023-01-27T20:16:34.107Z,3.60
2023-01-27T20:19:01.479Z,3.30
2023-01-27T20:21:31.358Z,3.13
2023-01-27T20:23:59.392Z,3.65
2023-01-27T20:26:29.415Z,3.28
2023-01-27T20:28:56.949Z,2.83
2023-01-27T20:31:24.336Z,3.08
2023-01-27T20:33:51.966Z,2.60
2023-01-27T20:36:22.237Z,2.78
2023-01-27T20:38:49.533Z,2.75
2023-01-27T20:41:19.552Z,3.35
2023-01-27T20:43:47.528Z,3.13
2023-01-27T20:46:17.763Z,3.10
2023-01-27T20:48:45.087Z,2.67
2023-01-27T20:51:15.570Z,2.97
2023-01-27T20:53:46.987Z,2.85
2023-01-27T20:56:19.824Z,2.92
2023-01-27T20:58:47.811Z,3.72
2023-01-27T21:01:20.754Z,3.70
2023-01-27T21:03:48.769Z,3.55
2023-01-27T21:06:19.374Z,4.25
2023-01-27T21:08:49.728Z,3.25
2023-01-27T21:11:18.883Z,3.50
2023-01-27T21:13:47.634Z,4.35
2023-01-27T21:16:15.458Z,4.70
2023-01-27T21:18:44.039Z,4.57
2023-01-27T21:21:22.765Z,5.05
2023-01-27T21:23:50.227Z,5.40
2023-01-27T21:26:17.588Z,5.47
2023-01-27T21:28:44.956Z,5.90
2023-01-27T21:31:16.260Z,5.95
2023-01-27T21:33:50.893Z,6.22
2023-01-27T21:36:19.008Z,5.18
2023-01-27T21:38:46.752Z,6.43
2023-01-27T21:41:37.621Z,6.38
2023-01-27T21:44:25.270Z,6.53
2023-01-27T21:46:52.624Z,6.75
2023-01-27T21:49:19.987Z,5.95
2023-01-27T21:51:49.905Z,6.80
2023-01-27T21:54:17.589Z,5.82
2023-01-27T21:56:44.889Z,6.10
2023-01-27T21:59:12.232Z,5.80
2023-01-27T22:01:39.837Z,5.68
2023-01-27T22:04:07.203Z,5.75
2023-01-27T22:06:34.513Z,4.90
2023-01-27T22:09:01.765Z,5.95
2023-01-27T22:11:29.021Z,6.25
2023-01-27T22:13:56.822Z,5.95
2023-01-27T22:16:25.885Z,6.20
2023-01-27T22:18:53.170Z,6.00
2023-01-27T22:21:20.465Z,6.05
2023-01-27T22:23:47.940Z,5.25
2023-01-27T22:26:15.347Z,6.13
2023-01-27T22:28:44.749Z,5.95
2023-01-27T22:31:12.064Z,6.00
2023-01-27T22:33:39.346Z,6.20
2023-01-27T22:36:07.289Z,6.35
2023-01-27T22:38:38.471Z,6.32
2023-01-27T22:41:06.066Z,6.70
2023-01-27T22:43:33.391Z,5.40
2023-01-27T22:46:02.376Z,6.82
2023-01-27T22:48:30.624Z,7.50
2023-01-27T22:51:02.021Z,6.40
2023-01-27T22:53:29.281Z,7.30
2023-01-27T22:56:01.039Z,9.40
2023-01-27T22:58:29.545Z,7.28
2023-01-27T23:00:57.346Z,8.27
2023-01-27T23:03:25.042Z,7.55
2023-01-27T23:05:52.366Z,7.18
2023-01-27T23:08:20.717Z,7.60
2023-01-27T23:10:48.788Z,7.25
2023-01-27T23:13:16.713Z,7.65
2023-01-27T23:15:43.991Z,7.20
2023-01-27T23:18:11.647Z,7.65
2023-01-27T23:20:40.429Z,8.50
2023-01-27T23:23:09.317Z,7.65
2023-01-27T23:25:40.793Z,6.72
2023-01-27T23:28:08.046Z,7.00
2023-01-27T23:30:35.433Z,6.82
2023-01-27T23:33:02.831Z,7.30
2023-01-27T23:35:30.060Z,7.40
2023-01-27T23:37:57.331Z,8.02
2023-01-27T23:40:24.591Z,5.95
2023-01-27T23:42:51.886Z,6.90
2023-01-27T23:45:19.171Z,7.30
2023-01-27T23:47:46.469Z,6.85
2023-01-27T23:50:13.813Z,6.07
2023-01-27T23:52:41.137Z,7.00
2023-01-27T23:55:08.701Z,7.00
2023-01-27T23:57:36.068Z,6.40
